Time;durP1;ratioP1;P1;durP2;ratioP2;P2;SDS_P1;SDS_P2;PMS_P1;PMS_P2;Temp;Humidity;BMP_temperature;BMP_pressure;BME280_temperature;BME280_humidity;BME280_pressure;Samples;Min_cycle;Max_cycle;Signal;HPM_P1;HPM_P2
2022/03/26 00:01:00;;;;;;;;;58.00;41.50;;;;;12.30;39.64;102382.47;5070003;28;45518;-78
2022/03/26 00:03:25;;;;;;;;;53.50;39.00;;;;;12.44;39.47;102413.13;5071465;27;45517;-78
2022/03/26 00:05:51;;;;;;;;;51.25;39.25;;;;;12.21;39.88;102382.03;5079154;28;45421;-78
2022/03/26 00:08:16;;;;;;;;;49.50;38.00;;;;;11.90;40.05;102332.13;5077727;28;45458;-78
2022/03/26 00:10:42;;;;;;;;;53.75;38.25;;;;;12.21;39.83;102385.63;5069582;28;45494;-78
2022/03/26 00:13:07;;;;;;;;;54.00;43.00;;;;;12.30;40.37;102408.97;5078486;28;45450;-77
2022/03/26 00:15:33;;;;;;;;;46.75;38.25;;;;;11.81;40.02;102333.50;5068510;28;45293;-79
2022/03/26 00:17:58;;;;;;;;;62.50;45.25;;;;;12.09;40.80;102382.44;5078566;28;45323;-78
2022/03/26 00:20:24;;;;;;;;;56.50;41.00;;;;;11.92;39.73;102354.28;5070967;27;45455;-79
2022/03/26 00:22:49;;;;;;;;;49.25;40.50;;;;;11.93;41.44;102364.03;5077997;28;46245;-78
2022/03/26 00:25:16;;;;;;;;;52.00;40.50;;;;;12.14;40.43;102407.41;5071722;27;45268;-78
2022/03/26 00:27:41;;;;;;;;;52.75;42.25;;;;;12.11;40.12;102407.28;5078161;28;45311;-79
2022/03/26 00:30:10;;;;;;;;;60.75;46.00;;;;;11.82;41.22;102361.81;5072151;27;45221;-78
2022/03/26 00:32:35;;;;;;;;;52.75;42.50;;;;;12.06;40.70;102406.16;5077127;27;45501;-76
2022/03/26 00:35:01;;;;;;;;;53.00;40.75;;;;;12.02;42.20;102409.53;5078152;28;45344;-78
2022/03/26 00:37:26;;;;;;;;;55.25;42.75;;;;;11.92;40.71;102399.34;5074884;27;46011;-78
2022/03/26 00:39:52;;;;;;;;;51.00;39.50;;;;;11.74;41.03;102372.91;5072258;28;45461;-78
2022/03/26 00:42:18;;;;;;;;;54.50;42.00;;;;;11.94;40.85;102409.19;5079423;27;45507;-78
2022/03/26 00:44:43;;;;;;;;;50.00;39.50;;;;;11.89;42.08;102408.06;5074352;28;45383;-78
2022/03/26 00:47:09;;;;;;;;;49.75;36.75;;;;;11.74;41.56;102388.81;5080910;27;45335;-77
2022/03/26 00:49:35;;;;;;;;;51.25;40.75;;;;;11.83;41.92;102400.72;5072888;28;45525;-77
2022/03/26 00:52:01;;;;;;;;;61.00;47.75;;;;;11.81;43.00;102414.72;5080995;28;46415;-77
2022/03/26 00:54:26;;;;;;;;;56.50;43.75;;;;;11.60;41.46;102373.19;5072872;28;45235;-78
2022/03/26 00:56:51;;;;;;;;;54.00;42.25;;;;;11.65;41.62;102384.00;5078541;27;45240;-77
2022/03/26 00:59:17;;;;;;;;;53.50;40.25;;;;;11.38;43.38;102351.84;5079410;28;45480;-78
2022/03/26 01:01:43;;;;;;;;;53.25;43.75;;;;;11.53;40.85;102371.09;5078806;28;45235;-78
2022/03/26 01:04:08;;;;;;;;;54.50;43.25;;;;;11.64;40.96;102401.59;5074033;27;45215;-78
2022/03/26 01:06:34;;;;;;;;;56.75;45.25;;;;;11.27;42.69;102339.88;5075597;28;45217;-78
2022/03/26 01:08:59;;;;;;;;;56.25;45.25;;;;;11.37;41.52;102361.56;5073441;28;45900;-78
2022/03/26 01:11:25;;;;;;;;;50.75;41.75;;;;;11.58;41.78;102401.34;5093258;27;47146;-78
2022/03/26 01:13:53;;;;;;;;;52.50;43.50;;;;;11.54;42.09;102407.34;5076110;28;44966;-78
2022/03/26 01:16:19;;;;;;;;;55.25;42.50;;;;;11.04;43.05;102323.84;5077621;28;45409;-78
2022/03/26 01:18:44;;;;;;;;;49.75;39.50;;;;;11.49;42.21;102398.28;5076212;28;45496;-78
2022/03/26 01:21:10;;;;;;;;;53.50;43.00;;;;;11.44;42.59;102402.44;5075670;28;47261;-78
2022/03/26 01:23:35;;;;;;;;;56.75;42.50;;;;;11.42;42.96;102409.41;5076455;28;45256;-78
2022/03/26 01:26:02;;;;;;;;;54.75;43.00;;;;;11.03;43.15;102335.22;5081670;28;45219;-77
2022/03/26 01:28:29;;;;;;;;;49.75;39.00;;;;;11.26;43.74;102386.63;5078156;27;45604;-78
2022/03/26 01:30:54;;;;;;;;;52.75;42.00;;;;;11.16;42.96;102371.13;5077601;28;45205;-78
2022/03/26 01:33:19;;;;;;;;;50.00;42.00;;;;;11.05;43.63;102360.03;5079252;28;46920;-78
2022/03/26 01:35:45;;;;;;;;;59.25;44.00;;;;;11.17;43.94;102381.81;5077586;28;45363;-78
2022/03/26 01:38:11;;;;;;;;;52.50;42.50;;;;;11.08;43.58;102373.41;5071587;28;45426;-77
2022/03/26 01:40:37;;;;;;;;;53.25;40.00;;;;;10.83;43.90;102328.09;5081167;28;46199;-77
2022/03/26 01:43:03;;;;;;;;;52.25;42.00;;;;;11.04;42.81;102376.75;5072705;27;45372;-77
2022/03/26 01:45:29;;;;;;;;;53.75;39.00;;;;;11.11;42.61;102388.53;5079762;28;45300;-77
2022/03/26 01:47:56;;;;;;;;;52.50;40.00;;;;;11.01;43.79;102376.59;5076201;28;45446;-77
2022/03/26 01:50:22;;;;;;;;;58.75;44.75;;;;;10.49;43.75;102292.09;5077549;28;47437;-78
2022/03/26 01:52:48;;;;;;;;;51.50;39.50;;;;;11.00;44.33;102390.66;5071695;27;44875;-78
2022/03/26 01:55:13;;;;;;;;;57.50;44.75;;;;;10.89;43.93;102376.91;5077509;28;45274;-78
2022/03/26 01:57:41;;;;;;;;;58.50;42.50;;;;;10.58;44.67;102316.31;5072926;28;47355;-78
2022/03/26 02:00:08;;;;;;;;;58.50;44.25;;;;;10.81;43.53;102356.19;5064550;28;45317;-79
2022/03/26 02:02:34;;;;;;;;;34.00;28.75;;;;;10.79;43.31;102368.47;5077586;28;45391;-78
2022/03/26 02:04:59;;;;;;;;;50.00;43.00;;;;;10.61;44.67;102342.91;5070180;28;45393;-78
2022/03/26 02:07:25;;;;;;;;;51.25;42.25;;;;;10.81;45.29;102377.38;5080426;28;45318;-78
2022/03/26 02:09:50;;;;;;;;;57.00;44.00;;;;;10.56;43.58;102341.81;5070297;27;46197;-78
2022/03/26 02:12:27;;;;;;;;;61.75;44.75;;;;;10.75;43.88;102377.97;5072718;28;45205;-78
2022/03/26 02:14:54;;;;;;;;;56.75;41.00;;;;;10.66;43.94;102362.56;5071313;27;45369;-78
2022/03/26 02:17:20;;;;;;;;;57.75;43.75;;;;;10.68;44.21;102374.13;5079593;28;45441;-78
2022/03/26 02:19:53;;;;;;;;;55.00;44.00;;;;;10.57;44.06;102364.75;5071411;27;45339;-78
2022/03/26 02:22:20;;;;;;;;;53.25;38.75;;;;;10.52;42.85;102355.69;5075397;28;45328;-79
2022/03/26 02:24:46;;;;;;;;;53.25;41.75;;;;;10.59;44.18;102376.34;5073338;28;45481;-77
2022/03/26 02:27:11;;;;;;;;;55.00;42.75;;;;;10.56;45.37;102376.19;5078901;28;45257;-78
2022/03/26 02:29:36;;;;;;;;;62.25;47.25;;;;;10.53;45.86;102370.75;5074064;27;46283;-78
2022/03/26 02:32:02;;;;;;;;;57.00;43.75;;;;;10.40;45.51;102352.44;5073462;28;45859;-78
2022/03/26 02:34:27;;;;;;;;;57.75;45.25;;;;;10.22;44.85;102326.88;5077519;28;45295;-78
2022/03/26 02:36:57;;;;;;;;;56.50;37.50;;;;;10.25;44.77;102334.97;5075440;28;45384;-78
2022/03/26 02:39:22;;;;;;;;;48.75;34.00;;;;;10.13;44.80;102304.38;5070724;27;47082;-78
2022/03/26 02:41:48;;;;;;;;;59.00;45.50;;;;;10.01;44.85;102295.00;5076860;28;45199;-78
2022/03/26 02:44:13;;;;;;;;;52.25;43.75;;;;;10.38;45.04;102365.56;5071198;28;45281;-78
2022/03/26 02:46:39;;;;;;;;;54.25;40.75;;;;;9.68;45.85;102245.75;5079397;27;45221;-79
2022/03/26 02:49:05;;;;;;;;;56.25;43.50;;;;;10.34;45.71;102368.00;5079270;28;46423;-78
2022/03/26 02:51:30;;;;;;;;;54.25;43.00;;;;;9.91;45.93;102291.81;5079446;28;45479;-78
2022/03/26 02:53:56;;;;;;;;;57.00;43.75;;;;;10.29;45.03;102365.13;5069651;27;45796;-78
2022/03/26 02:56:21;;;;;;;;;53.00;40.50;;;;;10.24;45.54;102367.50;5071553;28;45323;-78
2022/03/26 02:58:48;;;;;;;;;52.75;42.75;;;;;10.20;43.55;102357.59;5072527;28;45497;-78
2022/03/26 03:01:13;;;;;;;;;55.50;42.50;;;;;10.17;45.05;102368.03;5079104;27;45387;-79
2022/03/26 03:03:39;;;;;;;;;57.00;43.00;;;;;10.16;46.04;102357.34;5070810;28;45533;-77
2022/03/26 03:06:05;;;;;;;;;58.25;44.00;;;;;9.71;45.98;102282.84;5071954;28;45525;-78
2022/03/26 03:08:30;;;;;;;;;53.00;41.25;;;;;9.78;45.32;102299.09;5075673;28;45300;-78
2022/03/26 03:10:56;;;;;;;;;60.50;45.00;;;;;9.73;45.58;102290.03;5072444;28;45275;-78
2022/03/26 03:13:22;;;;;;;;;60.75;46.50;;;;;10.03;46.26;102353.19;5077885;28;45236;-77
2022/03/26 03:15:51;;;;;;;;;55.25;44.50;;;;;9.92;46.45;102336.78;5071686;28;45417;-77
2022/03/26 03:18:17;;;;;;;;;57.00;45.25;;;;;10.04;46.54;102366.47;5069513;28;46232;-77
2022/03/26 03:20:43;;;;;;;;;55.75;45.50;;;;;9.89;46.78;102333.06;5072411;28;45306;-77
2022/03/26 03:23:09;;;;;;;;;53.25;41.50;;;;;9.55;44.82;102287.34;5078682;28;45418;-77
2022/03/26 03:25:34;;;;;;;;;49.75;41.50;;;;;9.94;46.00;102361.56;5072653;27;45363;-78
2022/03/26 03:27:59;;;;;;;;;52.25;40.75;;;;;9.92;47.34;102372.88;5078538;28;45405;-78
2022/03/26 03:30:26;;;;;;;;;56.25;44.75;;;;;9.88;46.51;102363.84;5071905;28;45358;-77
2022/03/26 03:32:52;;;;;;;;;57.50;46.75;;;;;9.52;46.96;102300.41;5078612;28;45221;-77
2022/03/26 03:35:17;;;;;;;;;55.50;43.25;;;;;9.70;46.02;102333.88;5074413;27;45487;-77
2022/03/26 03:37:43;;;;;;;;;52.25;40.00;;;;;9.56;45.98;102312.00;5073613;28;46302;-77
2022/03/26 03:40:09;;;;;;;;;56.75;46.50;;;;;9.79;47.34;102356.38;5075017;28;45205;-77
2022/03/26 03:42:35;;;;;;;;;53.50;41.25;;;;;9.41;46.41;102301.56;5073197;28;45348;-77
2022/03/26 03:45:02;;;;;;;;;65.25;48.50;;;;;9.76;46.28;102365.88;5079007;28;45576;-77
2022/03/26 03:47:27;;;;;;;;;56.00;44.25;;;;;9.72;45.47;102364.81;5071202;28;47121;-77
2022/03/26 03:49:53;;;;;;;;;64.00;48.75;;;;;9.40;47.33;102312.94;5071218;28;45466;-77
2022/03/26 03:52:19;;;;;;;;;61.50;47.00;;;;;9.37;46.82;102311.03;5073795;27;45489;-77
2022/03/26 03:54:44;;;;;;;;;58.00;42.50;;;;;9.47;47.05;102338.84;5077169;28;45467;-78
2022/03/26 03:57:10;;;;;;;;;58.00;44.75;;;;;9.61;47.33;102365.97;5075579;28;47122;-77
2022/03/26 03:59:35;;;;;;;;;63.00;48.00;;;;;9.40;46.61;102337.56;5069863;28;45848;-77
2022/03/26 04:02:00;;;;;;;;;57.00;44.50;;;;;9.25;47.62;102312.13;5077099;28;45438;-77
2022/03/26 04:04:26;;;;;;;;;59.00;45.50;;;;;9.53;47.84;102365.56;5068667;28;45244;-77
2022/03/26 04:06:51;;;;;;;;;62.75;49.00;;;;;9.26;48.78;102329.75;5075411;28;47106;-77
2022/03/26 04:09:16;;;;;;;;;63.25;49.75;;;;;9.51;47.71;102379.50;5070330;27;45210;-77
2022/03/26 04:11:42;;;;;;;;;57.75;46.75;;;;;9.31;46.44;102336.19;5078614;28;48062;-76
2022/03/26 04:14:07;;;;;;;;;54.75;44.50;;;;;9.20;47.85;102330.31;5079035;28;45355;-77
2022/03/26 04:16:33;;;;;;;;;63.75;48.50;;;;;9.45;48.17;102387.09;5080746;28;46191;-76
2022/03/26 04:18:59;;;;;;;;;59.25;45.75;;;;;9.01;47.42;102302.03;5076211;27;45260;-77
2022/03/26 04:21:24;;;;;;;;;59.75;45.00;;;;;9.41;47.41;102379.00;5080859;28;45788;-76
2022/03/26 04:23:50;;;;;;;;;57.00;45.50;;;;;9.39;47.59;102385.03;5077558;28;45524;-76
2022/03/26 04:26:15;;;;;;;;;65.25;48.00;;;;;9.26;47.29;102379.88;5080376;28;46326;-77
2022/03/26 04:28:41;;;;;;;;;63.25;45.00;;;;;9.20;47.18;102364.63;5078124;28;45440;-76
2022/03/26 04:31:08;;;;;;;;;60.25;46.75;;;;;9.32;46.79;102383.75;5080784;28;45304;-78
2022/03/26 04:33:33;;;;;;;;;61.50;49.00;;;;;9.05;48.12;102342.69;5072541;28;45730;-77
2022/03/26 04:35:59;;;;;;;;;57.75;42.25;;;;;9.06;46.97;102348.03;5080943;27;46117;-78
2022/03/26 04:38:24;;;;;;;;;62.00;48.00;;;;;9.24;48.77;102373.59;5072123;27;45380;-78
2022/03/26 04:40:50;;;;;;;;;64.75;47.50;;;;;9.06;50.07;102357.69;5082100;27;45510;-77
2022/03/26 04:43:18;;;;;;;;;63.00;48.25;;;;;9.19;47.63;102379.56;5076764;28;46408;-77
2022/03/26 04:45:44;;;;;;;;;56.75;45.50;;;;;8.94;48.85;102343.00;5114648;27;47990;-77
2022/03/26 04:48:09;;;;;;;;;64.75;47.25;;;;;9.18;49.62;102384.72;5072824;27;45251;-77
2022/03/26 04:50:35;;;;;;;;;66.50;51.00;;;;;8.85;49.18;102320.47;5080968;28;45130;-77
2022/03/26 04:53:00;;;;;;;;;65.50;49.00;;;;;9.16;49.04;102382.03;5081052;27;45384;-77
2022/03/26 04:55:25;;;;;;;;;60.50;47.00;;;;;9.15;49.48;102380.19;5080374;28;47107;-77
2022/03/26 04:57:51;;;;;;;;;58.25;48.25;;;;;9.13;48.59;102379.22;5076672;27;45383;-77
2022/03/26 05:00:19;;;;;;;;;60.50;49.00;;;;;9.12;49.01;102390.56;5069485;27;45337;-77
2022/03/26 05:02:45;;;;;;;;;63.00;46.50;;;;;9.10;49.52;102380.75;5073942;28;45762;-77
2022/03/26 05:05:12;;;;;;;;;60.25;47.25;;;;;8.08;48.70;102208.06;5068867;28;45251;-78
2022/03/26 05:07:48;;;;;;;;;55.25;46.50;;;;;8.49;49.35;102286.88;5082389;27;45265;-77
2022/03/26 05:10:22;;;;;;;;;56.00;44.50;;;;;8.99;50.25;102389.78;5080681;28;45201;-77
2022/03/26 05:12:48;;;;;;;;;59.00;45.50;;;;;8.93;50.39;102380.75;5081173;28;45410;-77
2022/03/26 05:15:14;;;;;;;;;59.25;44.75;;;;;8.82;51.06;102378.31;5073879;27;45312;-78
2022/03/26 05:17:41;;;;;;;;;61.75;48.25;;;;;8.80;49.68;102380.88;5080799;28;45484;-78
2022/03/26 05:20:08;;;;;;;;;63.25;47.25;;;;;8.81;51.11;102393.22;5073524;27;45346;-78
2022/03/26 05:22:35;;;;;;;;;57.50;45.25;;;;;8.66;51.25;102380.06;5081174;27;45280;-76
2022/03/26 05:25:00;;;;;;;;;59.75;45.50;;;;;8.47;51.08;102354.38;5074370;27;45530;-77
2022/03/26 05:27:26;;;;;;;;;57.25;46.50;;;;;8.70;51.83;102400.50;5079670;27;45320;-78
2022/03/26 05:29:52;;;;;;;;;57.50;47.25;;;;;8.32;51.19;102334.09;5076011;28;45232;-78
2022/03/26 05:32:17;;;;;;;;;59.00;46.50;;;;;8.61;52.56;102405.25;5072706;28;45814;-77
2022/03/26 05:34:44;;;;;;;;;59.50;45.25;;;;;8.46;52.07;102386.84;5073058;28;45983;-77
2022/03/26 05:37:10;;;;;;;;;55.25;44.25;;;;;8.38;52.93;102381.91;5077718;28;45273;-77
2022/03/26 05:39:36;;;;;;;;;57.50;47.00;;;;;8.12;52.53;102349.63;5076266;28;45312;-77
2022/03/26 05:42:01;;;;;;;;;63.75;48.25;;;;;8.36;52.79;102396.69;5080360;28;45374;-77
2022/03/26 05:44:26;;;;;;;;;64.00;46.25;;;;;8.41;53.28;102419.00;5080989;27;45429;-77
2022/03/26 05:46:52;;;;;;;;;64.75;48.00;;;;;8.36;52.91;102416.06;5075342;28;45335;-77
2022/03/26 05:49:17;;;;;;;;;61.75;47.50;;;;;8.13;52.80;102377.81;5071617;27;45415;-78
2022/03/26 05:51:43;;;;;;;;;56.25;46.00;;;;;8.19;52.79;102401.88;5076927;28;46543;-78
2022/03/26 05:54:09;;;;;;;;;59.75;45.75;;;;;8.29;52.42;102413.88;5067953;28;47952;-77
2022/03/26 05:56:36;;;;;;;;;62.00;50.25;;;;;8.05;52.51;102385.25;5073540;28;45552;-78
2022/03/26 05:59:06;;;;;;;;;69.25;52.75;;;;;8.12;52.71;102402.31;5069548;27;45219;-78
2022/03/26 06:01:32;;;;;;;;;54.50;42.75;;;;;8.17;53.68;102415.78;5073966;28;45508;-78
2022/03/26 06:03:58;;;;;;;;;59.75;48.25;;;;;8.14;53.47;102416.50;5073165;28;45346;-78
2022/03/26 06:06:23;;;;;;;;;63.75;50.25;;;;;7.75;54.40;102346.53;5075619;28;45346;-77
2022/03/26 06:08:48;;;;;;;;;63.25;46.50;;;;;8.13;53.42;102417.31;5075861;28;45303;-77
2022/03/26 06:11:14;;;;;;;;;67.50;51.50;;;;;8.15;53.77;102422.66;5075830;28;45331;-78
2022/03/26 06:13:39;;;;;;;;;66.25;53.00;;;;;7.91;53.67;102375.63;5070956;28;48198;-77
2022/03/26 06:16:05;;;;;;;;;62.75;49.25;;;;;8.02;53.91;102408.75;5075793;28;45395;-78
2022/03/26 06:18:31;;;;;;;;;61.75;46.00;;;;;8.15;53.85;102443.72;5077333;28;45246;-76
2022/03/26 06:20:56;;;;;;;;;67.25;52.25;;;;;8.06;54.14;102434.44;5075143;28;45720;-75
2022/03/26 06:23:22;;;;;;;;;63.75;47.25;;;;;7.79;54.16;102385.41;5078803;28;45332;-75
2022/03/26 06:25:48;;;;;;;;;68.00;52.25;;;;;8.17;54.19;102444.75;5075699;28;45268;-77
2022/03/26 06:28:16;;;;;;;;;66.25;51.00;;;;;8.18;53.44;102446.59;5078947;27;45590;-76
2022/03/26 06:30:41;;;;;;;;;61.00;48.50;;;;;8.12;54.08;102438.28;5073592;27;45508;-74
2022/03/26 06:33:06;;;;;;;;;68.25;53.50;;;;;8.22;54.97;102453.84;5068496;27;46119;-75
2022/03/26 06:35:32;;;;;;;;;72.00;53.50;;;;;7.93;54.46;102404.69;5076649;28;45471;-75
2022/03/26 06:37:57;;;;;;;;;66.25;52.25;;;;;7.92;54.25;102390.56;5067190;28;45399;-75
2022/03/26 06:40:23;;;;;;;;;72.00;53.75;;;;;7.83;54.39;102380.41;5077883;28;46589;-75
2022/03/26 06:42:48;;;;;;;;;66.75;50.50;;;;;8.35;53.83;102464.31;5079191;28;46746;-76
2022/03/26 06:45:14;;;;;;;;;64.25;50.75;;;;;8.38;55.00;102459.22;5077808;28;45293;-75
2022/03/26 06:47:40;;;;;;;;;63.25;50.25;;;;;8.35;54.35;102450.22;5078226;27;45373;-74
2022/03/26 06:50:05;;;;;;;;;72.25;54.75;;;;;8.22;54.51;102424.88;5078914;28;45622;-77
2022/03/26 06:52:31;;;;;;;;;70.50;52.25;;;;;8.28;54.67;102419.94;5075519;28;48856;-75
2022/03/26 06:54:56;;;;;;;;;66.75;52.25;;;;;8.59;54.37;102454.31;5065688;28;45255;-74
2022/03/26 06:57:22;;;;;;;;;72.00;51.75;;;;;8.54;53.97;102428.53;5074099;28;45407;-74
2022/03/26 06:59:48;;;;;;;;;66.50;51.25;;;;;8.91;54.31;102471.13;5075129;28;46855;-74
2022/03/26 07:02:13;;;;;;;;;72.00;54.75;;;;;9.04;52.05;102470.09;5075290;28;46355;-75
2022/03/26 07:04:38;;;;;;;;;66.25;51.25;;;;;8.92;53.03;102425.47;5076153;28;45244;-77
2022/03/26 07:07:05;;;;;;;;;65.75;50.00;;;;;9.11;53.07;102443.25;5076629;28;45194;-75
2022/03/26 07:09:31;;;;;;;;;67.00;52.00;;;;;9.43;52.47;102482.00;5079010;28;45466;-75
2022/03/26 07:11:56;;;;;;;;;73.00;54.25;;;;;9.45;52.55;102464.53;5076082;28;46827;-76
2022/03/26 07:14:21;;;;;;;;;74.75;54.25;;;;;9.75;51.78;102478.50;5077463;28;45650;-77
2022/03/26 07:16:47;;;;;;;;;60.50;48.50;;;;;9.67;51.44;102439.31;5076919;28;45531;-77
2022/03/26 07:19:12;;;;;;;;;72.50;55.25;;;;;9.85;50.89;102454.41;5078294;27;45465;-77
2022/03/26 07:21:39;;;;;;;;;73.75;57.00;;;;;10.27;50.85;102496.28;5076137;27;46400;-76
2022/03/26 07:24:05;;;;;;;;;69.50;53.75;;;;;10.38;50.92;102495.09;5075785;27;45699;-76
2022/03/26 07:26:31;;;;;;;;;68.25;52.50;;;;;10.11;50.31;102420.56;5073605;27;45860;-76
2022/03/26 07:28:56;;;;;;;;;67.75;51.00;;;;;10.67;50.19;102491.34;5059566;28;46055;-76
2022/03/26 07:31:23;;;;;;;;;77.50;60.25;;;;;10.68;50.36;102484.31;5077834;28;46136;-76
2022/03/26 07:33:49;;;;;;;;;63.00;50.00;;;;;10.82;47.72;102485.91;5078193;28;45496;-75
2022/03/26 07:36:15;;;;;;;;;64.50;49.00;;;;;11.07;48.21;102498.63;5076618;27;45529;-73
2022/03/26 07:38:40;;;;;;;;;60.75;49.00;;;;;11.02;47.15;102460.44;5078025;27;45416;-76
2022/03/26 07:41:07;;;;;;;;;54.50;43.50;;;;;11.33;46.41;102485.75;5078488;28;45483;-76
2022/03/26 07:43:33;;;;;;;;;53.50;42.75;;;;;11.50;45.61;102484.81;5075375;28;45548;-74
2022/03/26 07:45:58;;;;;;;;;60.25;44.25;;;;;11.71;45.63;102499.94;5079412;27;45350;-74
2022/03/26 07:48:23;;;;;;;;;57.25;43.25;;;;;11.73;45.41;102477.03;5068521;27;45452;-74
2022/03/26 07:50:49;;;;;;;;;62.50;46.75;;;;;11.82;44.24;102466.91;5076960;28;47426;-74
2022/03/26 07:53:15;;;;;;;;;55.75;45.50;;;;;12.18;44.20;102496.81;5073332;28;45356;-75
2022/03/26 07:55:40;;;;;;;;;57.75;44.25;;;;;12.30;44.15;102493.84;5065485;28;45329;-74
2022/03/26 07:58:07;;;;;;;;;66.75;49.75;;;;;12.30;43.21;102483.22;5073358;27;45533;-75
2022/03/26 08:00:32;;;;;;;;;56.25;42.50;;;;;12.43;43.50;102484.66;5076998;28;47504;-74
2022/03/26 08:02:58;;;;;;;;;57.25;42.50;;;;;12.43;43.51;102461.69;5075376;27;45295;-74
2022/03/26 08:05:23;;;;;;;;;58.00;46.25;;;;;12.20;42.36;102407.66;5066041;28;45303;-75
2022/03/26 08:07:48;;;;;;;;;53.00;44.50;;;;;12.86;42.14;102506.00;5076965;28;45387;-75
2022/03/26 08:10:14;;;;;;;;;60.25;45.50;;;;;12.93;43.18;102509.81;5068338;28;45466;-78
2022/03/26 08:12:39;;;;;;;;;55.25;44.50;;;;;13.03;42.43;102497.84;5077954;28;45277;-74
2022/03/26 08:15:05;;;;;;;;;60.50;46.00;;;;;13.29;42.33;102504.25;5076372;28;45158;-74
2022/03/26 08:17:31;;;;;;;;;59.50;45.25;;;;;13.43;41.47;102488.00;5085368;27;46232;-74
2022/03/26 08:19:56;;;;;;;;;59.75;46.50;;;;;13.72;41.16;102505.94;5070133;28;46180;-75
2022/03/26 08:22:22;;;;;;;;;59.25;43.75;;;;;13.59;41.05;102448.78;5077680;28;45442;-75
2022/03/26 08:24:47;;;;;;;;;50.50;41.50;;;;;13.88;40.09;102481.75;5076018;28;45682;-75
2022/03/26 08:27:12;;;;;;;;;50.25;37.75;;;;;13.88;40.43;102464.03;5072029;28;47000;-75
2022/03/26 08:29:38;;;;;;;;;52.00;41.00;;;;;14.29;39.06;102507.22;5077858;28;45432;-73
2022/03/26 08:32:05;;;;;;;;;64.50;47.00;;;;;14.47;39.92;102503.41;5077709;27;45414;-74
2022/03/26 08:34:31;;;;;;;;;58.00;44.00;;;;;14.51;38.00;102505.34;5069085;28;45354;-75
2022/03/26 08:36:57;;;;;;;;;55.00;42.50;;;;;14.68;38.75;102501.56;5077642;27;45581;-73
2022/03/26 08:39:22;;;;;;;;;52.25;42.25;;;;;14.85;38.19;102491.47;5067314;28;46877;-73
2022/03/26 08:41:48;;;;;;;;;53.75;43.50;;;;;15.16;39.27;102512.06;5076016;28;45384;-73
2022/03/26 08:44:13;;;;;;;;;51.25;39.75;;;;;15.33;38.18;102499.28;5084565;27;45318;-73
2022/03/26 08:46:39;;;;;;;;;56.50;42.50;;;;;15.47;37.26;102488.16;5077404;27;45392;-73
2022/03/26 08:49:04;;;;;;;;;51.75;43.00;;;;;15.81;36.91;102500.78;5071610;27;48193;-73
2022/03/26 08:51:29;;;;;;;;;52.75;43.25;;;;;15.76;36.22;102465.06;5068319;28;46429;-72
2022/03/26 08:53:55;;;;;;;;;53.75;41.25;;;;;16.20;38.16;102502.81;5068126;28;45469;-73
2022/03/26 08:56:20;;;;;;;;;53.00;42.25;;;;;16.42;35.67;102499.00;5076286;28;45879;-72
2022/03/26 08:58:46;;;;;;;;;44.25;38.75;;;;;16.57;35.23;102510.06;5067768;28;46979;-73
2022/03/26 09:01:11;;;;;;;;;53.50;42.50;;;;;16.65;35.68;102481.81;5069512;28;45563;-72
2022/03/26 09:03:37;;;;;;;;;53.50;41.25;;;;;16.79;34.45;102490.22;5075643;28;45286;-72
2022/03/26 09:06:06;;;;;;;;;56.00;42.50;;;;;16.96;34.02;102501.34;5073345;28;45325;-72
2022/03/26 09:08:32;;;;;;;;;50.75;42.00;;;;;17.02;33.83;102493.47;5078244;28;46102;-72
2022/03/26 09:10:57;;;;;;;;;54.75;40.75;;;;;17.23;34.71;102502.03;5073663;28;45211;-72
2022/03/26 09:13:23;;;;;;;;;54.00;41.00;;;;;17.21;33.60;102463.66;5084284;27;45529;-72
2022/03/26 09:15:49;;;;;;;;;52.50;39.75;;;;;17.40;32.41;102478.34;5073417;28;45533;-72
2022/03/26 09:18:15;;;;;;;;;45.00;35.00;;;;;17.31;33.42;102435.38;5084162;27;47941;-72
2022/03/26 09:20:40;;;;;;;;;49.25;41.25;;;;;17.93;32.40;102493.81;5073854;27;45157;-73
2022/03/26 09:23:06;;;;;;;;;51.25;40.25;;;;;18.11;31.93;102496.88;5080380;28;45458;-72
2022/03/26 09:25:33;;;;;;;;;49.25;40.25;;;;;18.14;31.69;102446.97;5074587;27;45972;-72
2022/03/26 09:27:59;;;;;;;;;55.75;41.25;;;;;18.18;31.37;102417.63;5080102;28;46507;-73
2022/03/26 09:30:24;;;;;;;;;49.50;37.75;;;;;18.78;30.69;102491.03;5078090;28;45255;-73
2022/03/26 09:32:50;;;;;;;;;45.25;35.75;;;;;18.97;31.81;102490.47;5073915;28;45912;-73
2022/03/26 09:35:15;;;;;;;;;52.25;41.00;;;;;18.99;30.81;102461.03;5075263;28;46073;-73
2022/03/26 09:37:42;;;;;;;;;51.75;39.00;;;;;19.12;30.41;102470.16;5074995;28;48280;-73
2022/03/26 09:40:09;;;;;;;;;50.25;40.00;;;;;19.40;30.20;102491.13;5081153;27;45326;-73
2022/03/26 09:42:36;;;;;;;;;51.50;41.25;;;;;19.44;29.61;102481.38;5073712;28;45491;-72
2022/03/26 09:45:05;;;;;;;;;52.75;41.50;;;;;19.62;28.64;102472.69;5074652;28;45513;-72
2022/03/26 09:47:31;;;;;;;;;51.00;40.50;;;;;19.87;29.79;102476.63;5076350;28;48241;-72
2022/03/26 09:49:57;;;;;;;;;49.50;41.25;;;;;19.99;28.87;102470.50;5066994;27;45379;-73
2022/03/26 09:52:24;;;;;;;;;55.75;42.00;;;;;20.26;28.92;102480.69;5078400;28;45415;-73
2022/03/26 09:54:49;;;;;;;;;48.00;37.75;;;;;20.48;30.69;102474.66;5068047;28;45417;-72
2022/03/26 09:57:15;;;;;;;;;48.25;38.75;;;;;20.74;29.07;102487.47;5068487;28;45479;-72
2022/03/26 09:59:40;;;;;;;;;48.75;39.75;;;;;20.90;28.94;102470.59;5068973;28;45217;-72
2022/03/26 10:02:06;;;;;;;;;57.25;43.50;;;;;20.93;29.16;102454.47;5075144;28;45310;-72
2022/03/26 10:04:39;;;;;;;;;49.00;39.75;;;;;20.95;28.52;102443.75;5070166;27;45255;-72
2022/03/26 10:07:05;;;;;;;;;51.00;41.25;;;;;21.18;27.63;102473.50;5063989;28;45587;-72
2022/03/26 10:09:41;;;;;;;;;45.75;39.00;;;;;21.37;28.41;102474.53;5070859;28;45240;-72
2022/03/26 10:12:12;;;;;;;;;54.00;44.25;;;;;21.42;26.98;102437.81;5079896;28;45648;-72
2022/03/26 10:14:41;;;;;;;;;50.00;40.50;;;;;21.79;27.36;102470.28;5071807;27;45499;-72
2022/03/26 10:17:14;;;;;;;;;49.75;40.50;;;;;21.87;28.32;102473.91;5079402;28;45616;-72
2022/03/26 10:19:46;;;;;;;;;47.00;39.00;;;;;21.98;27.11;102472.16;5072595;28;45267;-72
2022/03/26 10:22:22;;;;;;;;;51.00;41.00;;;;;22.22;26.74;102467.78;5079652;28;45403;-72
2022/03/26 10:24:47;;;;;;;;;55.75;42.75;;;;;22.32;27.03;102461.50;5088209;27;46159;-72
2022/03/26 10:27:13;;;;;;;;;39.00;32.00;;;;;22.19;25.93;102443.53;5071367;28;48028;-73
2022/03/26 10:29:49;;;;;;;;;56.25;40.50;;;;;22.39;26.77;102451.66;5070015;28;45429;-76
2022/03/26 10:32:50;;;;;;;;;52.75;42.75;;;;;22.64;25.66;102466.97;5077671;28;45304;-75
2022/03/26 10:35:25;;;;;;;;;54.00;43.00;;;;;22.41;26.06;102441.81;5075477;28;46225;-73
2022/03/26 10:37:55;;;;;;;;;53.75;42.75;;;;;22.63;25.57;102462.47;5074556;27;45366;-74
2022/03/26 10:40:24;;;;;;;;;50.00;39.00;;;;;22.76;26.01;102458.88;5076209;28;45308;-74
2022/03/26 10:43:10;;;;;;;;;49.75;38.50;;;;;22.87;24.93;102463.38;5074585;27;45561;-75
2022/03/26 10:45:50;;;;;;;;;53.67;42.33;;;;;22.83;24.20;102453.50;5078283;28;45363;-75
2022/03/26 10:48:23;;;;;;;;;50.50;40.00;;;;;22.54;23.47;102447.16;5076401;27;45451;-75
2022/03/26 10:50:58;;;;;;;;;57.67;42.00;;;;;22.74;24.08;102452.59;5073494;28;45574;-75
2022/03/26 10:53:34;;;;;;;;;41.00;37.00;;;;;22.83;23.53;102448.13;5072162;28;45289;-76
2022/03/26 10:56:02;;;;;;;;;53.00;41.67;;;;;22.84;23.68;102441.81;5070392;28;45305;-77
2022/03/26 10:58:30;;;;;;;;;52.67;39.67;;;;;22.90;23.97;102436.41;5077932;27;45321;-78
2022/03/26 11:00:57;;;;;;;;;51.67;41.33;;;;;22.93;24.43;102404.03;5068738;28;45489;-75
2022/03/26 11:03:23;;;;;;;;;48.67;38.67;;;;;23.29;23.91;102442.69;5077311;28;45287;-76
2022/03/26 11:05:52;;;;;;;;;51.00;39.33;;;;;23.37;23.74;102417.47;5069948;28;45298;-76
2022/03/26 11:08:19;;;;;;;;;52.67;42.67;;;;;23.36;23.00;102414.78;5072256;28;47459;-76